createdAt,value
2022-08-19T00:00:33.212Z,21.15
2022-08-19T00:01:33.213Z,21.11
2022-08-19T00:02:33.191Z,21.08
2022-08-19T00:03:33.442Z,21.07
2022-08-19T00:04:33.190Z,21.06
2022-08-19T00:05:33.166Z,21.06
2022-08-19T00:06:33.151Z,21.07
2022-08-19T00:07:33.147Z,21.08
2022-08-19T00:08:33.149Z,21.09
2022-08-19T00:09:33.355Z,21.10
2022-08-19T00:10:33.112Z,21.11
2022-08-19T00:11:33.182Z,21.11
2022-08-19T00:12:33.092Z,21.11
2022-08-19T00:13:34.074Z,21.11
2022-08-19T00:14:33.167Z,21.11
2022-08-19T00:15:33.280Z,21.11
2022-08-19T00:16:33.033Z,21.10
2022-08-19T00:17:33.032Z,21.09
2022-08-19T00:18:33.032Z,21.08
2022-08-19T00:19:33.010Z,21.07
2022-08-19T00:20:32.998Z,21.07
2022-08-19T00:21:33.154Z,21.06
2022-08-19T00:22:33.047Z,21.05
2022-08-19T00:23:32.963Z,21.05
2022-08-19T00:24:33.129Z,21.04
2022-08-19T00:25:32.953Z,21.03
2022-08-19T00:26:32.973Z,21.01
2022-08-19T00:27:32.927Z,21.00
2022-08-19T00:28:32.913Z,20.99
2022-08-19T00:29:32.914Z,20.98
2022-08-19T00:30:33.131Z,20.97
2022-08-19T00:31:32.885Z,20.97
2022-08-19T00:32:32.864Z,20.96
2022-08-19T00:33:32.866Z,20.95
2022-08-19T00:34:32.851Z,20.94
2022-08-19T00:35:32.834Z,20.94
2022-08-19T00:36:33.163Z,20.93
2022-08-19T00:37:32.822Z,20.93
2022-08-19T00:38:37.969Z,20.92
2022-08-19T00:39:33.853Z,20.92
2022-08-19T00:40:32.794Z,20.92
2022-08-19T00:41:32.797Z,20.92
2022-08-19T00:42:32.924Z,20.91
2022-08-19T00:43:32.765Z,20.92
2022-08-19T00:44:32.764Z,20.92
2022-08-19T00:45:32.755Z,20.93
2022-08-19T00:46:32.722Z,20.92
2022-08-19T00:47:33.036Z,20.92
2022-08-19T00:48:32.725Z,20.92
2022-08-19T00:49:32.706Z,20.93
2022-08-19T00:50:32.692Z,20.93
2022-08-19T00:51:32.666Z,20.93
2022-08-19T00:52:32.675Z,20.93
2022-08-19T00:53:32.805Z,20.94
2022-08-19T00:54:32.626Z,20.94
2022-08-19T00:55:32.658Z,20.93
2022-08-19T00:56:32.617Z,20.92
2022-08-19T00:57:32.607Z,20.92
2022-08-19T00:58:32.586Z,20.92
2022-08-19T00:59:56.168Z,20.91
2022-08-19T01:00:33.571Z,20.90
2022-08-19T01:01:32.594Z,20.89
2022-08-19T01:02:32.582Z,20.89
2022-08-19T01:03:56.476Z,20.89
2022-08-19T01:04:34.407Z,20.89
2022-08-19T01:05:32.571Z,20.88
2022-08-19T01:06:32.505Z,20.87
2022-08-19T01:07:35.900Z,20.87
2022-08-19T01:08:33.487Z,20.86
2022-08-19T01:09:32.472Z,20.86
2022-08-19T01:10:36.691Z,20.86
2022-08-19T01:11:32.466Z,20.85
2022-08-19T01:12:32.456Z,20.85
2022-08-19T01:13:49.135Z,20.85
2022-08-19T01:14:33.425Z,20.84
2022-08-19T01:15:32.408Z,20.84
2022-08-19T01:16:32.553Z,20.83
2022-08-19T01:17:32.398Z,20.82
2022-08-19T01:18:32.369Z,20.82
2022-08-19T01:19:32.387Z,20.81
2022-08-19T01:20:33.362Z,20.81
2022-08-19T01:21:32.658Z,20.81
2022-08-19T01:22:33.935Z,20.80
2022-08-19T01:23:32.328Z,20.79
2022-08-19T01:24:32.338Z,20.78
2022-08-19T01:25:32.308Z,20.77
2022-08-19T01:26:32.290Z,20.76
2022-08-19T01:27:38.041Z,20.75
2022-08-19T01:28:33.887Z,20.74
2022-08-19T01:29:32.275Z,20.74
2022-08-19T01:30:32.241Z,20.74
2022-08-19T01:31:32.797Z,20.74
2022-08-19T01:32:33.939Z,20.74
2022-08-19T01:33:32.531Z,20.74
2022-08-19T01:34:32.211Z,20.74
2022-08-19T01:35:32.222Z,20.74
2022-08-19T01:36:32.188Z,20.74
2022-08-19T01:37:32.171Z,20.74
2022-08-19T01:38:32.168Z,20.75
2022-08-19T01:39:32.509Z,20.75
2022-08-19T01:40:32.140Z,20.75
2022-08-19T01:41:32.139Z,20.74
2022-08-19T01:42:32.117Z,20.72
2022-08-19T01:43:32.105Z,20.69
2022-08-19T01:44:32.103Z,20.66
2022-08-19T01:45:32.280Z,20.65
2022-08-19T01:46:32.072Z,20.64
2022-08-19T01:47:32.072Z,20.64
2022-08-19T01:48:32.050Z,20.63
2022-08-19T01:49:32.041Z,20.63
2022-08-19T01:50:32.042Z,20.62
2022-08-19T01:51:39.643Z,20.62
2022-08-19T01:52:33.012Z,20.62
2022-08-19T01:53:33.730Z,20.61
2022-08-19T01:54:31.990Z,20.61
2022-08-19T01:55:31.982Z,20.61
2022-08-19T01:56:32.138Z,20.61
2022-08-19T01:57:31.952Z,20.61
2022-08-19T01:58:31.950Z,20.61
2022-08-19T01:59:31.940Z,20.60
2022-08-19T02:00:31.926Z,20.60
2022-08-19T02:01:31.929Z,20.60
2022-08-19T02:02:32.070Z,20.60
2022-08-19T02:03:39.415Z,20.60
2022-08-19T02:04:31.879Z,20.59
2022-08-19T02:05:31.870Z,20.59
2022-08-19T02:06:31.869Z,20.58
2022-08-19T02:07:32.229Z,20.59
2022-08-19T02:08:31.842Z,20.59
2022-08-19T02:09:31.831Z,20.58
2022-08-19T02:10:31.820Z,20.56
2022-08-19T02:11:31.808Z,20.55
2022-08-19T02:12:31.791Z,20.54
2022-08-19T02:13:31.969Z,20.55
2022-08-19T02:14:31.782Z,20.56
2022-08-19T02:15:31.760Z,20.57
2022-08-19T02:16:31.793Z,20.57
2022-08-19T02:17:31.742Z,20.58
2022-08-19T02:18:31.732Z,20.59
2022-08-19T02:19:32.078Z,20.60
2022-08-19T02:20:31.724Z,20.60
2022-08-19T02:21:31.704Z,20.61
2022-08-19T02:22:31.691Z,20.61
2022-08-19T02:23:31.745Z,20.62
2022-08-19T02:24:31.670Z,20.63
2022-08-19T02:25:31.984Z,20.64
2022-08-19T02:26:31.683Z,20.64
2022-08-19T02:27:31.637Z,20.65
2022-08-19T02:28:31.622Z,20.65
2022-08-19T02:29:31.616Z,20.66
2022-08-19T02:30:31.602Z,20.67
2022-08-19T02:31:31.790Z,20.67
2022-08-19T02:32:31.593Z,20.67
2022-08-19T02:33:31.572Z,20.67
2022-08-19T02:34:31.560Z,20.66
2022-08-19T02:35:31.555Z,20.66
2022-08-19T02:36:31.704Z,20.65
2022-08-19T02:37:31.530Z,20.65
2022-08-19T02:38:31.535Z,20.65
2022-08-19T02:39:31.535Z,20.65
2022-08-19T02:40:31.494Z,20.66
2022-08-19T02:41:31.635Z,20.66
2022-08-19T02:42:31.478Z,20.66
2022-08-19T02:43:33.823Z,20.67
2022-08-19T02:44:32.063Z,20.67
2022-08-19T02:45:31.432Z,20.67
2022-08-19T02:46:31.423Z,20.67
2022-08-19T02:47:31.584Z,20.66
2022-08-19T02:48:31.419Z,20.66
2022-08-19T02:49:34.758Z,20.65
2022-08-19T02:50:31.406Z,20.64
2022-08-19T02:51:31.374Z,20.63
2022-08-19T02:52:31.374Z,20.61
2022-08-19T02:53:31.746Z,20.61
2022-08-19T02:54:31.347Z,20.60
2022-08-19T02:55:31.334Z,20.59
2022-08-19T02:56:32.335Z,20.58
2022-08-19T02:57:31.316Z,20.58
2022-08-19T02:58:31.328Z,20.57
2022-08-19T02:59:31.531Z,20.57
2022-08-19T03:00:31.294Z,20.56
2022-08-19T03:01:31.293Z,20.55
2022-08-19T03:02:31.266Z,20.54
2022-08-19T03:03:31.244Z,20.53
2022-08-19T03:04:31.236Z,20.52
2022-08-19T03:05:47.036Z,20.52
2022-08-19T03:06:32.214Z,20.50
2022-08-19T03:07:31.225Z,20.49
2022-08-19T03:08:31.200Z,20.49
2022-08-19T03:09:31.188Z,20.48
2022-08-19T03:10:31.175Z,20.48
2022-08-19T03:11:31.472Z,20.48
2022-08-19T03:12:31.146Z,20.49
2022-08-19T03:13:31.135Z,20.49
2022-08-19T03:14:31.137Z,20.50
2022-08-19T03:15:31.134Z,20.50
2022-08-19T03:16:33.507Z,20.50
2022-08-19T03:17:31.458Z,20.49
2022-08-19T03:18:31.093Z,20.49
2022-08-19T03:19:31.075Z,20.49
2022-08-19T03:20:31.076Z,20.49
2022-08-19T03:21:31.058Z,20.49
2022-08-19T03:22:31.090Z,20.49
2022-08-19T03:23:31.195Z,20.49
2022-08-19T03:24:31.025Z,20.48
2022-08-19T03:25:31.005Z,20.48
2022-08-19T03:26:31.003Z,20.47
2022-08-19T03:27:34.177Z,20.47
2022-08-19T03:28:31.196Z,20.48
2022-08-19T03:29:31.770Z,20.47
2022-08-19T03:30:30.967Z,20.45
2022-08-19T03:31:44.681Z,20.43
2022-08-19T03:32:32.872Z,20.42
2022-08-19T03:33:30.932Z,20.41
2022-08-19T03:34:31.156Z,20.41
2022-08-19T03:35:30.905Z,20.41
2022-08-19T03:36:30.901Z,20.42
2022-08-19T03:37:30.881Z,20.43
2022-08-19T03:38:30.897Z,20.43
2022-08-19T03:39:30.907Z,20.44
2022-08-19T03:40:31.021Z,20.45
2022-08-19T03:41:44.188Z,20.45
2022-08-19T03:42:47.932Z,20.46
2022-08-19T03:43:31.818Z,20.46
2022-08-19T03:44:30.877Z,20.47
2022-08-19T03:45:30.962Z,20.47
2022-08-19T03:46:30.791Z,20.48
2022-08-19T03:47:30.807Z,20.50
2022-08-19T03:48:30.773Z,20.50
2022-08-19T03:49:30.759Z,20.51
2022-08-19T03:50:30.765Z,20.51
2022-08-19T03:51:31.293Z,20.51
2022-08-19T03:52:30.729Z,20.49
2022-08-19T03:53:30.710Z,20.48
2022-08-19T03:54:30.705Z,20.47
2022-08-19T03:55:30.697Z,20.47
2022-08-19T03:56:30.689Z,20.47
2022-08-19T03:57:31.812Z,20.47
2022-08-19T03:58:30.682Z,20.47
2022-08-19T03:59:30.648Z,20.48
2022-08-19T04:00:30.654Z,20.48
2022-08-19T04:01:35.195Z,20.49
2022-08-19T04:02:31.947Z,20.50
2022-08-19T04:03:30.650Z,20.50
2022-08-19T04:04:30.599Z,20.51
2022-08-19T04:05:30.603Z,20.51
2022-08-19T04:06:30.610Z,20.51
2022-08-19T04:07:30.559Z,20.51
2022-08-19T04:08:30.879Z,20.51
2022-08-19T04:09:30.548Z,20.50
2022-08-19T04:10:30.529Z,20.50
2022-08-19T04:11:43.984Z,20.50
2022-08-19T04:12:31.529Z,20.50
2022-08-19T04:13:30.513Z,20.49
2022-08-19T04:14:30.903Z,20.49
2022-08-19T04:15:30.474Z,20.49
2022-08-19T04:16:34.997Z,20.49
2022-08-19T04:17:30.456Z,20.50
2022-08-19T04:18:34.691Z,20.50
2022-08-19T04:19:31.446Z,20.51
2022-08-19T04:20:30.600Z,20.51
2022-08-19T04:21:30.409Z,20.51
2022-08-19T04:22:30.409Z,20.51
2022-08-19T04:23:30.392Z,20.52
2022-08-19T04:24:30.392Z,20.52
2022-08-19T04:25:30.361Z,20.51
2022-08-19T04:26:30.566Z,20.51
2022-08-19T04:27:30.347Z,20.51
2022-08-19T04:28:30.352Z,20.51
2022-08-19T04:29:30.329Z,20.51
2022-08-19T04:30:30.318Z,20.51
2022-08-19T04:31:30.301Z,20.51
2022-08-19T04:32:30.451Z,20.51
2022-08-19T04:33:30.294Z,20.51
2022-08-19T04:34:30.293Z,20.52
2022-08-19T04:35:30.261Z,20.52
2022-08-19T04:36:30.288Z,20.53
2022-08-19T04:37:35.344Z,20.53
2022-08-19T04:38:31.400Z,20.54
2022-08-19T04:39:30.247Z,20.55
2022-08-19T04:40:30.213Z,20.56
2022-08-19T04:41:30.212Z,20.56
2022-08-19T04:42:30.617Z,20.57
2022-08-19T04:43:30.338Z,20.58
2022-08-19T04:44:30.195Z,20.58
2022-08-19T04:45:39.581Z,20.58
2022-08-19T04:46:39.868Z,20.58
2022-08-19T04:47:48.284Z,20.58
2022-08-19T04:48:31.285Z,20.58
2022-08-19T04:49:30.110Z,20.58
2022-08-19T04:50:30.117Z,20.58
2022-08-19T04:51:30.091Z,20.58
2022-08-19T04:52:30.092Z,20.59
2022-08-19T04:53:37.725Z,20.59
2022-08-19T04:54:38.574Z,20.59
2022-08-19T04:55:33.402Z,20.60
2022-08-19T04:56:31.067Z,20.61
2022-08-19T04:57:30.026Z,20.61
2022-08-19T04:58:30.033Z,20.61
2022-08-19T04:59:29.999Z,20.61
2022-08-19T05:00:30.154Z,20.61
2022-08-19T05:01:30.067Z,20.61
2022-08-19T05:02:29.983Z,20.61
2022-08-19T05:03:30.630Z,20.62
2022-08-19T05:04:29.956Z,20.62
2022-08-19T05:05:29.939Z,20.62
2022-08-19T05:06:31.088Z,20.63
2022-08-19T05:07:29.921Z,20.63
2022-08-19T05:08:30.767Z,20.64
2022-08-19T05:09:53.288Z,20.64
2022-08-19T05:10:30.886Z,20.64
2022-08-19T05:11:29.872Z,20.65
2022-08-19T05:12:30.063Z,20.65
2022-08-19T05:13:29.926Z,20.66
2022-08-19T05:14:29.843Z,20.66
2022-08-19T05:15:29.832Z,20.67
2022-08-19T05:16:29.825Z,20.68
2022-08-19T05:17:33.610Z,20.68
2022-08-19T05:18:31.134Z,20.69
2022-08-19T05:19:29.785Z,20.70
2022-08-19T05:20:29.783Z,20.71
2022-08-19T05:21:29.767Z,20.72
2022-08-19T05:22:29.767Z,20.73
2022-08-19T05:23:29.756Z,20.73
2022-08-19T05:24:30.062Z,20.73
2022-08-19T05:25:29.722Z,20.74
2022-08-19T05:26:29.729Z,20.73
2022-08-19T05:27:29.713Z,20.73
2022-08-19T05:28:29.695Z,20.73
2022-08-19T05:29:36.159Z,20.72
2022-08-19T05:30:46.514Z,20.72
2022-08-19T05:31:30.694Z,20.72
2022-08-19T05:32:29.651Z,20.72
2022-08-19T05:33:29.635Z,20.72
2022-08-19T05:34:29.627Z,20.72
2022-08-19T05:35:29.801Z,20.72
2022-08-19T05:36:30.606Z,20.73
2022-08-19T05:37:29.596Z,20.73
2022-08-19T05:38:29.605Z,20.74
2022-08-19T05:39:29.590Z,20.74
2022-08-19T05:40:29.565Z,20.75
2022-08-19T05:41:29.707Z,20.76
2022-08-19T05:42:29.551Z,20.77
2022-08-19T05:43:29.529Z,20.77
2022-08-19T05:44:29.528Z,20.78
2022-08-19T05:45:29.516Z,20.79
2022-08-19T05:46:29.502Z,20.80
2022-08-19T05:47:29.658Z,20.81
2022-08-19T05:48:29.481Z,20.82
2022-08-19T05:49:29.471Z,20.82
2022-08-19T05:50:29.459Z,20.81
2022-08-19T05:51:29.490Z,20.81
2022-08-19T05:52:29.439Z,20.81
2022-08-19T05:53:29.607Z,20.82
2022-08-19T05:54:29.422Z,20.82
2022-08-19T05:55:29.407Z,20.83
2022-08-19T05:56:29.401Z,20.84
2022-08-19T05:57:29.377Z,20.84
2022-08-19T05:58:29.397Z,20.83
2022-08-19T05:59:29.548Z,20.83
2022-08-19T06:00:29.351Z,20.83
2022-08-19T06:01:29.338Z,20.83
2022-08-19T06:02:29.420Z,20.84
2022-08-19T06:03:29.313Z,20.84
2022-08-19T06:04:29.309Z,20.85
2022-08-19T06:05:29.631Z,20.86
2022-08-19T06:06:29.289Z,20.87
2022-08-19T06:07:29.309Z,20.88
2022-08-19T06:08:34.372Z,20.88
2022-08-19T06:09:30.251Z,20.89
2022-08-19T06:10:29.294Z,20.89
2022-08-19T06:11:29.553Z,20.89
2022-08-19T06:12:29.240Z,20.89
2022-08-19T06:13:29.219Z,20.89
2022-08-19T06:14:29.232Z,20.88
2022-08-19T06:15:29.199Z,20.89
2022-08-19T06:16:29.179Z,20.89
2022-08-19T06:17:29.334Z,20.90
2022-08-19T06:18:29.159Z,20.91
2022-08-19T06:19:29.148Z,20.92
2022-08-19T06:20:54.140Z,20.92
2022-08-19T06:21:30.125Z,20.93
2022-08-19T06:22:29.330Z,20.93
2022-08-19T06:23:29.106Z,20.94
2022-08-19T06:24:29.094Z,20.95
2022-08-19T06:25:30.591Z,20.95
2022-08-19T06:26:29.069Z,20.96
2022-08-19T06:27:29.108Z,20.96
2022-08-19T06:28:29.205Z,20.95
2022-08-19T06:29:29.043Z,20.95
2022-08-19T06:30:29.032Z,20.95
2022-08-19T06:31:29.040Z,20.94
2022-08-19T06:32:29.014Z,20.92
2022-08-19T06:33:29.173Z,20.90
2022-08-19T06:34:29.009Z,20.88
2022-08-19T06:35:28.984Z,20.86
2022-08-19T06:36:28.962Z,20.84
2022-08-19T06:37:28.977Z,20.82
2022-08-19T06:38:28.949Z,20.81
2022-08-19T06:39:28.962Z,20.81
2022-08-19T06:40:28.949Z,20.81
2022-08-19T06:41:28.931Z,20.82
2022-08-19T06:42:28.904Z,20.83
2022-08-19T06:43:29.137Z,20.84
2022-08-19T06:44:28.893Z,20.85
2022-08-19T06:45:35.385Z,20.86
2022-08-19T06:46:29.862Z,20.87
2022-08-19T06:47:29.869Z,20.87
2022-08-19T06:48:28.835Z,20.88
2022-08-19T06:49:28.833Z,20.88
2022-08-19T06:50:29.021Z,20.88
2022-08-19T06:52:28.784Z,20.88
2022-08-19T06:53:28.783Z,20.88
2022-08-19T06:54:30.741Z,20.88
2022-08-19T06:55:28.761Z,20.88
2022-08-19T06:56:28.893Z,20.88
2022-08-19T06:57:28.746Z,20.88
2022-08-19T06:58:28.733Z,20.88
2022-08-19T06:59:28.722Z,20.88
2022-08-19T07:00:28.812Z,20.88
2022-08-19T07:01:29.033Z,20.88
2022-08-19T07:02:28.683Z,20.88
2022-08-19T07:03:28.693Z,20.89
2022-08-19T07:04:28.667Z,20.89
2022-08-19T07:05:28.652Z,20.88
2022-08-19T07:06:44.828Z,20.87
2022-08-19T07:07:29.799Z,20.86
2022-08-19T07:08:29.256Z,20.85
2022-08-19T07:09:28.620Z,20.85
2022-08-19T07:10:28.609Z,20.85
2022-08-19T07:11:28.584Z,20.85
2022-08-19T07:12:29.652Z,20.86
2022-08-19T07:13:28.816Z,20.87
2022-08-19T07:14:28.558Z,20.87
2022-08-19T07:15:28.558Z,20.88
2022-08-19T07:16:28.973Z,20.89
2022-08-19T07:17:28.524Z,20.90
2022-08-19T07:18:28.506Z,20.90
2022-08-19T07:19:28.529Z,20.91
2022-08-19T07:20:29.599Z,20.91
2022-08-19T07:21:29.462Z,20.92
2022-08-19T07:22:28.470Z,20.92
2022-08-19T07:23:28.519Z,20.91
2022-08-19T07:24:28.480Z,20.91
2022-08-19T07:25:32.522Z,20.91
2022-08-19T07:26:28.426Z,20.91
2022-08-19T07:27:28.417Z,20.91
2022-08-19T07:28:28.404Z,20.90
2022-08-19T07:29:28.537Z,20.90
2022-08-19T07:30:28.385Z,20.91
2022-08-19T07:31:28.394Z,20.91
2022-08-19T07:32:28.388Z,20.92
2022-08-19T07:33:28.359Z,20.92
2022-08-19T07:34:28.336Z,20.92
2022-08-19T07:35:28.325Z,20.92
2022-08-19T07:36:28.317Z,20.92
2022-08-19T07:37:32.828Z,20.91
2022-08-19T07:38:28.297Z,20.91
2022-08-19T07:39:28.295Z,20.90
2022-08-19T07:40:28.275Z,20.90
2022-08-19T07:41:28.266Z,20.89
2022-08-19T07:42:28.260Z,20.89
2022-08-19T07:43:34.744Z,20.89
2022-08-19T07:44:29.285Z,20.89
2022-08-19T07:45:28.223Z,20.88
2022-08-19T07:46:28.216Z,20.88
2022-08-19T07:47:47.448Z,20.88
2022-08-19T07:48:29.428Z,20.88
2022-08-19T07:49:28.182Z,20.88
2022-08-19T07:50:28.166Z,20.89
2022-08-19T07:51:36.185Z,20.89
2022-08-19T07:52:29.140Z,20.89
2022-08-19T07:53:28.135Z,20.89
2022-08-19T07:54:28.335Z,20.89
2022-08-19T07:55:40.261Z,20.89
2022-08-19T07:56:29.096Z,20.89
2022-08-19T07:57:28.110Z,20.89
2022-08-19T07:58:28.078Z,20.89
2022-08-19T07:59:28.075Z,20.89
2022-08-19T08:00:28.251Z,20.90
2022-08-19T08:01:28.078Z,20.90
2022-08-19T08:02:28.078Z,20.90
2022-08-19T08:03:28.028Z,20.91
2022-08-19T08:04:28.031Z,20.92
2022-08-19T08:05:28.007Z,20.93
2022-08-19T08:06:28.200Z,20.93
2022-08-19T08:07:31.437Z,20.93
2022-08-19T08:08:27.981Z,20.94
2022-08-19T08:09:27.975Z,20.94
2022-08-19T08:10:27.957Z,20.94
2022-08-19T08:11:27.938Z,20.95
2022-08-19T08:12:34.780Z,20.95
2022-08-19T08:13:29.072Z,20.95
2022-08-19T08:14:28.961Z,20.96
2022-08-19T08:15:27.899Z,20.96
2022-08-19T08:16:27.900Z,20.95
2022-08-19T08:17:31.163Z,20.95
2022-08-19T08:18:30.509Z,20.94
2022-08-19T08:19:27.868Z,20.94
2022-08-19T08:20:27.914Z,20.94
2022-08-19T08:21:27.868Z,20.93
2022-08-19T08:22:27.886Z,20.93
2022-08-19T08:23:27.840Z,20.93
2022-08-19T08:24:28.592Z,20.93
2022-08-19T08:25:27.819Z,20.93
2022-08-19T08:26:27.788Z,20.93
2022-08-19T08:27:27.781Z,20.93
2022-08-19T08:28:29.597Z,20.92
2022-08-19T08:29:34.632Z,20.91
2022-08-19T08:30:31.275Z,20.91
2022-08-19T08:31:27.734Z,20.90
2022-08-19T08:32:27.740Z,20.90
2022-08-19T08:33:34.331Z,20.90
2022-08-19T08:34:28.701Z,20.89
2022-08-19T08:35:27.726Z,20.89
2022-08-19T08:36:27.844Z,20.89
2022-08-19T08:37:27.700Z,20.89
2022-08-19T08:38:28.239Z,20.88
2022-08-19T08:39:28.650Z,20.87
2022-08-19T08:40:27.634Z,20.85
2022-08-19T08:41:27.788Z,20.84
2022-08-19T08:42:27.617Z,20.83
2022-08-19T08:43:27.610Z,20.82
2022-08-19T08:44:27.591Z,20.81
2022-08-19T08:45:27.581Z,20.80
2022-08-19T08:46:30.473Z,20.79
2022-08-19T08:47:27.556Z,20.78
2022-08-19T08:48:27.542Z,20.77
2022-08-19T08:49:27.531Z,20.77
2022-08-19T08:50:27.529Z,20.76
2022-08-19T08:51:29.927Z,20.76
2022-08-19T08:52:32.217Z,20.75
2022-08-19T08:53:31.779Z,20.75
2022-08-19T08:54:28.494Z,20.74
2022-08-19T08:55:27.470Z,20.73
2022-08-19T08:56:28.484Z,20.72
2022-08-19T08:57:27.782Z,20.72
2022-08-19T08:58:27.443Z,20.71
2022-08-19T08:59:27.431Z,20.71
2022-08-19T09:00:27.421Z,20.70
2022-08-19T09:01:30.409Z,20.68
2022-08-19T09:02:27.392Z,20.66
2022-08-19T09:03:27.556Z,20.64
2022-08-19T09:04:27.391Z,20.63
2022-08-19T09:05:27.367Z,20.63
2022-08-19T09:06:28.365Z,20.62
2022-08-19T09:07:35.231Z,20.61
2022-08-19T09:08:28.652Z,20.60
2022-08-19T09:09:29.009Z,20.58
2022-08-19T09:10:27.337Z,20.57
2022-08-19T09:11:42.832Z,20.55
2022-08-19T09:12:28.291Z,20.53
2022-08-19T09:13:27.286Z,20.51
2022-08-19T09:14:49.309Z,20.50
2022-08-19T09:15:33.767Z,20.49
2022-08-19T09:16:28.315Z,20.48
2022-08-19T09:17:27.235Z,20.46
2022-08-19T09:18:29.827Z,20.41
2022-08-19T09:19:27.376Z,20.36
2022-08-19T09:20:27.194Z,20.31
2022-08-19T09:21:33.134Z,20.26
2022-08-19T09:22:28.180Z,20.23
2022-08-19T09:23:27.339Z,20.21
2022-08-19T09:24:31.178Z,20.21
2022-08-19T09:25:29.425Z,20.21
2022-08-19T09:26:29.809Z,20.21
2022-08-19T09:27:42.336Z,20.19
2022-08-19T09:28:28.122Z,20.16
2022-08-19T09:29:27.104Z,20.12
2022-08-19T09:30:27.095Z,20.09
2022-08-19T09:31:27.581Z,20.06
2022-08-19T09:32:27.217Z,20.03
2022-08-19T09:33:27.067Z,20.00
2022-08-19T09:34:27.049Z,19.97
2022-08-19T09:35:28.443Z,19.96
2022-08-19T09:36:31.177Z,19.96
2022-08-19T09:37:28.172Z,19.97
2022-08-19T09:38:27.005Z,19.98
2022-08-19T09:39:27.006Z,19.98
2022-08-19T09:40:28.091Z,19.98
2022-08-19T09:41:26.975Z,19.98
2022-08-19T09:42:30.014Z,19.99
2022-08-19T09:43:33.680Z,19.99
2022-08-19T09:44:27.938Z,19.98
2022-08-19T09:45:26.939Z,19.96
2022-08-19T09:46:26.915Z,19.94
2022-08-19T09:47:27.084Z,19.92
2022-08-19T09:48:26.896Z,19.92
2022-08-19T09:49:26.897Z,19.90
2022-08-19T09:50:26.879Z,19.89
2022-08-19T09:51:26.877Z,19.87
2022-08-19T09:52:32.661Z,19.84
2022-08-19T09:53:28.043Z,19.81
2022-08-19T09:54:26.844Z,19.78
2022-08-19T09:55:31.034Z,19.77
2022-08-19T09:56:27.815Z,19.76
2022-08-19T09:57:26.804Z,19.73
2022-08-19T09:58:26.925Z,19.70
2022-08-19T09:59:27.010Z,19.66
2022-08-19T10:00:26.774Z,19.62
2022-08-19T10:01:26.803Z,19.59
2022-08-19T10:02:26.762Z,19.56
2022-08-19T10:03:30.222Z,19.55
2022-08-19T10:04:26.926Z,19.55
2022-08-19T10:05:27.137Z,19.56
2022-08-19T10:06:45.755Z,19.56
2022-08-19T10:07:36.116Z,19.57
2022-08-19T10:08:27.691Z,19.58
2022-08-19T10:09:34.402Z,19.60
2022-08-19T10:10:27.845Z,19.61
2022-08-19T10:11:27.378Z,19.62
2022-08-19T10:12:26.638Z,19.63
2022-08-19T10:13:26.642Z,19.64
2022-08-19T10:14:26.617Z,19.65
2022-08-19T10:15:29.169Z,19.66
2022-08-19T10:16:30.279Z,19.66
2022-08-19T10:17:27.408Z,19.66
2022-08-19T10:18:27.608Z,19.66
2022-08-19T10:19:26.605Z,19.66
2022-08-19T10:20:26.569Z,19.67
2022-08-19T10:21:26.553Z,19.68
2022-08-19T10:22:26.752Z,19.67
2022-08-19T10:23:26.528Z,19.65
2022-08-19T10:24:27.516Z,19.62
2022-08-19T10:25:26.514Z,19.60
2022-08-19T10:26:26.712Z,19.59
2022-08-19T10:27:26.647Z,19.59
2022-08-19T10:28:26.695Z,19.59
2022-08-19T10:29:32.186Z,19.60
2022-08-19T10:30:27.449Z,19.60
2022-08-19T10:32:01.095Z,19.60
2022-08-19T10:32:33.691Z,19.60
2022-08-19T10:33:39.320Z,19.59
2022-08-19T10:34:28.551Z,19.59
2022-08-19T10:35:26.396Z,19.58
2022-08-19T10:36:26.387Z,19.57
2022-08-19T10:37:31.371Z,19.56
2022-08-19T10:38:31.505Z,19.56
2022-08-19T10:39:26.350Z,19.56
2022-08-19T10:40:26.634Z,19.57
2022-08-19T10:41:26.328Z,19.57
2022-08-19T10:42:26.320Z,19.58
2022-08-19T10:43:26.313Z,19.57
2022-08-19T10:44:32.102Z,19.54
2022-08-19T10:45:28.170Z,19.50
2022-08-19T10:46:26.279Z,19.45
2022-08-19T10:47:26.342Z,19.40
2022-08-19T10:48:27.262Z,19.35
2022-08-19T10:49:26.239Z,19.30
2022-08-19T10:50:28.738Z,19.27
2022-08-19T10:51:26.377Z,19.25
2022-08-19T10:52:32.494Z,19.24
2022-08-19T10:53:27.204Z,19.22
2022-08-19T10:54:32.172Z,19.22
2022-08-19T10:55:29.790Z,19.23
2022-08-19T10:56:26.430Z,19.23
2022-08-19T10:57:36.871Z,19.22
2022-08-19T10:58:27.169Z,19.22
2022-08-19T10:59:26.890Z,19.22
2022-08-19T11:00:26.131Z,19.22
2022-08-19T11:01:26.171Z,19.22
2022-08-19T11:02:26.271Z,19.22
2022-08-19T11:03:26.092Z,19.22
2022-08-19T11:04:28.847Z,19.22
2022-08-19T11:05:26.078Z,19.22
2022-08-19T11:06:26.065Z,19.22
2022-08-19T11:07:26.237Z,19.22
2022-08-19T11:08:26.049Z,19.23
2022-08-19T11:09:33.325Z,19.24
2022-08-19T11:10:27.020Z,19.26
2022-08-19T11:11:26.013Z,19.28
2022-08-19T11:12:26.012Z,19.30
2022-08-19T11:13:26.177Z,19.31
2022-08-19T11:14:25.973Z,19.32
2022-08-19T11:15:25.960Z,19.34
2022-08-19T11:16:26.116Z,19.35
2022-08-19T11:17:25.950Z,19.37
2022-08-19T11:18:25.929Z,19.39
2022-08-19T11:19:25.919Z,19.40
2022-08-19T11:20:25.922Z,19.41
2022-08-19T11:21:25.914Z,19.42
2022-08-19T11:22:34.397Z,19.44
2022-08-19T11:23:26.883Z,19.44
2022-08-19T11:24:25.901Z,19.43
2022-08-19T11:25:25.858Z,19.43
2022-08-19T11:26:25.869Z,19.43
2022-08-19T11:27:26.093Z,19.44
2022-08-19T11:28:25.846Z,19.45
2022-08-19T11:29:25.833Z,19.46
2022-08-19T11:30:25.811Z,19.46
2022-08-19T11:31:28.922Z,19.46
2022-08-19T11:32:25.792Z,19.45
2022-08-19T11:33:25.937Z,19.43
2022-08-19T11:34:25.772Z,19.39
2022-08-19T11:35:25.786Z,19.36
2022-08-19T11:36:25.741Z,19.32
2022-08-19T11:37:25.731Z,19.29
2022-08-19T11:38:25.742Z,19.27
2022-08-19T11:39:25.937Z,19.25
2022-08-19T11:40:25.695Z,19.23
2022-08-19T11:41:25.690Z,19.21
2022-08-19T11:42:25.681Z,19.20
2022-08-19T11:43:25.661Z,19.18
2022-08-19T11:44:25.652Z,19.17
2022-08-19T11:45:25.818Z,19.16
2022-08-19T11:46:25.634Z,19.14
2022-08-19T11:47:25.698Z,19.13
2022-08-19T11:48:25.615Z,19.13
2022-08-19T11:49:25.611Z,19.13
2022-08-19T11:50:25.591Z,19.14
2022-08-19T11:51:25.625Z,19.14
2022-08-19T11:52:25.577Z,19.15
2022-08-19T11:53:25.553Z,19.16
2022-08-19T11:54:25.573Z,19.17
2022-08-19T11:55:25.533Z,19.18
2022-08-19T11:56:25.574Z,19.20
2022-08-19T11:57:25.663Z,19.21
2022-08-19T11:58:25.504Z,19.21
2022-08-19T11:59:25.490Z,19.20
2022-08-19T12:00:25.510Z,19.17
2022-08-19T12:01:25.474Z,19.14
2022-08-19T12:02:25.463Z,19.12
2022-08-19T12:03:25.607Z,19.11
2022-08-19T12:04:25.532Z,19.09
2022-08-19T12:05:25.430Z,19.09
2022-08-19T12:06:25.484Z,19.10
2022-08-19T12:07:25.409Z,19.11
2022-08-19T12:08:25.436Z,19.12
2022-08-19T12:09:25.662Z,19.14
2022-08-19T12:10:26.491Z,19.16
2022-08-19T12:11:25.363Z,19.17
2022-08-19T12:12:25.365Z,19.19
2022-08-19T12:13:25.339Z,19.21
2022-08-19T12:14:25.366Z,19.22
2022-08-19T12:15:25.481Z,19.22
2022-08-19T12:16:25.308Z,19.23
2022-08-19T12:17:25.300Z,19.23
2022-08-19T12:18:25.291Z,19.23
2022-08-19T12:19:25.279Z,19.24
2022-08-19T12:20:25.294Z,19.25
2022-08-19T12:21:25.275Z,19.27
2022-08-19T12:22:25.251Z,19.29
2022-08-19T12:23:25.921Z,19.31
2022-08-19T12:24:25.223Z,19.33
2022-08-19T12:25:25.708Z,19.35
2022-08-19T12:26:25.205Z,19.37
2022-08-19T12:27:35.738Z,19.39
2022-08-19T12:28:26.192Z,19.41
2022-08-19T12:29:25.164Z,19.43
2022-08-19T12:30:25.162Z,19.45
2022-08-19T12:31:25.308Z,19.47
2022-08-19T12:32:25.137Z,19.49
2022-08-19T12:33:25.147Z,19.52
2022-08-19T12:34:25.131Z,19.54
2022-08-19T12:35:25.103Z,19.56
2022-08-19T12:36:25.087Z,19.58
2022-08-19T12:37:25.250Z,19.60
2022-08-19T12:38:25.073Z,19.62
2022-08-19T12:39:25.062Z,19.64
2022-08-19T12:40:26.299Z,19.65
2022-08-19T12:41:25.035Z,19.66
2022-08-19T12:42:25.028Z,19.68
2022-08-19T12:43:25.176Z,19.68
2022-08-19T12:44:31.861Z,19.68
2022-08-19T12:45:26.016Z,19.68
2022-08-19T12:46:26.078Z,19.68
2022-08-19T12:47:24.968Z,19.68
2022-08-19T12:48:34.751Z,19.67
2022-08-19T12:49:52.796Z,19.68
2022-08-19T12:50:25.953Z,19.68
2022-08-19T12:51:24.933Z,19.69
2022-08-19T12:52:24.930Z,19.70
2022-08-19T12:53:24.943Z,19.72